sensor_id;sensor_type;location;lat;lon;timestamp;P1;durP1;ratioP1;P2;durP2;ratioP2
31770;SDS011;18343;50.152;8.182;2022-08-01T00:01:56;2.25;;;1.42;;
31770;SDS011;18343;50.152;8.182;2022-08-01T00:04:23;2.22;;;1.65;;
31770;SDS011;18343;50.152;8.182;2022-08-01T00:06:50;3.10;;;1.60;;
31770;SDS011;18343;50.152;8.182;2022-08-01T00:09:19;1.52;;;1.33;;
31770;SDS011;18343;50.152;8.182;2022-08-01T00:11:47;2.13;;;1.38;;
31770;SDS011;18343;50.152;8.182;2022-08-01T00:14:14;2.00;;;1.40;;
31770;SDS011;18343;50.152;8.182;2022-08-01T00:16:42;1.40;;;1.30;;
31770;SDS011;18343;50.152;8.182;2022-08-01T00:19:09;2.95;;;1.17;;
31770;SDS011;18343;50.152;8.182;2022-08-01T00:21:37;1.60;;;1.42;;
31770;SDS011;18343;50.152;8.182;2022-08-01T00:24:05;2.28;;;1.45;;
31770;SDS011;18343;50.152;8.182;2022-08-01T00:26:34;3.20;;;1.60;;
31770;SDS011;18343;50.152;8.182;2022-08-01T00:29:01;2.17;;;1.45;;
31770;SDS011;18343;50.152;8.182;2022-08-01T00:31:29;2.58;;;1.60;;
31770;SDS011;18343;50.152;8.182;2022-08-01T00:33:57;1.85;;;1.42;;
31770;SDS011;18343;50.152;8.182;2022-08-01T00:36:24;1.83;;;1.55;;
31770;SDS011;18343;50.152;8.182;2022-08-01T00:38:52;2.80;;;1.50;;
31770;SDS011;18343;50.152;8.182;2022-08-01T00:41:19;2.85;;;1.63;;
31770;SDS011;18343;50.152;8.182;2022-08-01T00:43:48;2.00;;;1.55;;
31770;SDS011;18343;50.152;8.182;2022-08-01T00:46:16;2.15;;;1.40;;
31770;SDS011;18343;50.152;8.182;2022-08-01T00:48:43;3.35;;;1.67;;
31770;SDS011;18343;50.152;8.182;2022-08-01T00:51:11;2.67;;;1.23;;
31770;SDS011;18343;50.152;8.182;2022-08-01T00:53:40;1.88;;;1.35;;
31770;SDS011;18343;50.152;8.182;2022-08-01T00:56:07;3.45;;;1.45;;
31770;SDS011;18343;50.152;8.182;2022-08-01T00:58:36;2.88;;;1.40;;
31770;SDS011;18343;50.152;8.182;2022-08-01T01:01:05;2.92;;;1.40;;
31770;SDS011;18343;50.152;8.182;2022-08-01T01:03:32;4.13;;;1.30;;
31770;SDS011;18343;50.152;8.182;2022-08-01T01:06:06;3.67;;;1.73;;
31770;SDS011;18343;50.152;8.182;2022-08-01T01:08:41;2.42;;;1.50;;
31770;SDS011;18343;50.152;8.182;2022-08-01T01:11:17;2.92;;;1.50;;
31770;SDS011;18343;50.152;8.182;2022-08-01T01:13:57;6.75;;;1.92;;
31770;SDS011;18343;50.152;8.182;2022-08-01T01:16:32;2.28;;;1.48;;
31770;SDS011;18343;50.152;8.182;2022-08-01T01:19:03;3.20;;;1.35;;
31770;SDS011;18343;50.152;8.182;2022-08-01T01:21:42;2.00;;;1.40;;
31770;SDS011;18343;50.152;8.182;2022-08-01T01:24:28;3.17;;;1.30;;
31770;SDS011;18343;50.152;8.182;2022-08-01T01:27:06;2.53;;;1.85;;
31770;SDS011;18343;50.152;8.182;2022-08-01T01:29:46;2.10;;;1.40;;
31770;SDS011;18343;50.152;8.182;2022-08-01T01:32:18;6.70;;;1.60;;
31770;SDS011;18343;50.152;8.182;2022-08-01T01:34:54;1.98;;;1.45;;
31770;SDS011;18343;50.152;8.182;2022-08-01T01:37:23;2.60;;;1.58;;
31770;SDS011;18343;50.152;8.182;2022-08-01T01:39:53;1.50;;;1.10;;
31770;SDS011;18343;50.152;8.182;2022-08-01T01:42:22;2.28;;;1.30;;
31770;SDS011;18343;50.152;8.182;2022-08-01T01:44:53;2.53;;;1.40;;
31770;SDS011;18343;50.152;8.182;2022-08-01T01:47:22;1.90;;;1.30;;
31770;SDS011;18343;50.152;8.182;2022-08-01T01:49:51;1.65;;;1.40;;
31770;SDS011;18343;50.152;8.182;2022-08-01T01:52:24;1.85;;;1.27;;
31770;SDS011;18343;50.152;8.182;2022-08-01T01:54:54;2.17;;;1.38;;
31770;SDS011;18343;50.152;8.182;2022-08-01T01:57:23;1.55;;;1.33;;
31770;SDS011;18343;50.152;8.182;2022-08-01T01:59:53;1.30;;;1.20;;
31770;SDS011;18343;50.152;8.182;2022-08-01T02:02:22;5.50;;;1.30;;
31770;SDS011;18343;50.152;8.182;2022-08-01T02:04:50;2.20;;;1.33;;
31770;SDS011;18343;50.152;8.182;2022-08-01T02:07:20;2.70;;;1.50;;
31770;SDS011;18343;50.152;8.182;2022-08-01T02:09:51;5.00;;;1.40;;
31770;SDS011;18343;50.152;8.182;2022-08-01T02:12:20;1.88;;;1.50;;
31770;SDS011;18343;50.152;8.182;2022-08-01T02:14:48;3.17;;;1.40;;
31770;SDS011;18343;50.152;8.182;2022-08-01T02:17:23;3.10;;;1.25;;
31770;SDS011;18343;50.152;8.182;2022-08-01T02:19:51;1.35;;;1.13;;
31770;SDS011;18343;50.152;8.182;2022-08-01T02:22:21;2.72;;;1.25;;
31770;SDS011;18343;50.152;8.182;2022-08-01T02:24:59;3.25;;;1.75;;
31770;SDS011;18343;50.152;8.182;2022-08-01T02:27:33;2.05;;;1.20;;
31770;SDS011;18343;50.152;8.182;2022-08-01T02:30:07;1.90;;;1.35;;
31770;SDS011;18343;50.152;8.182;2022-08-01T02:32:41;2.83;;;1.13;;
31770;SDS011;18343;50.152;8.182;2022-08-01T02:35:13;1.08;;;0.95;;
31770;SDS011;18343;50.152;8.182;2022-08-01T02:37:49;1.55;;;1.38;;
31770;SDS011;18343;50.152;8.182;2022-08-01T02:40:19;1.85;;;1.30;;
31770;SDS011;18343;50.152;8.182;2022-08-01T02:42:48;2.92;;;1.30;;
31770;SDS011;18343;50.152;8.182;2022-08-01T02:45:20;1.23;;;1.10;;
31770;SDS011;18343;50.152;8.182;2022-08-01T02:47:55;2.80;;;1.92;;
31770;SDS011;18343;50.152;8.182;2022-08-01T02:50:30;2.03;;;1.30;;
31770;SDS011;18343;50.152;8.182;2022-08-01T02:53:03;4.18;;;1.35;;
31770;SDS011;18343;50.152;8.182;2022-08-01T02:55:35;1.95;;;1.40;;
31770;SDS011;18343;50.152;8.182;2022-08-01T02:58:04;2.42;;;1.70;;
31770;SDS011;18343;50.152;8.182;2022-08-01T03:00:35;2.22;;;1.75;;
31770;SDS011;18343;50.152;8.182;2022-08-01T03:03:07;5.40;;;2.00;;
31770;SDS011;18343;50.152;8.182;2022-08-01T03:05:35;4.90;;;1.48;;
31770;SDS011;18343;50.152;8.182;2022-08-01T03:08:06;3.47;;;1.50;;
31770;SDS011;18343;50.152;8.182;2022-08-01T03:10:38;2.63;;;1.65;;
31770;SDS011;18343;50.152;8.182;2022-08-01T03:13:09;3.15;;;1.35;;
31770;SDS011;18343;50.152;8.182;2022-08-01T03:15:38;4.00;;;1.90;;
31770;SDS011;18343;50.152;8.182;2022-08-01T03:18:11;3.03;;;2.10;;
31770;SDS011;18343;50.152;8.182;2022-08-01T03:20:40;2.97;;;1.83;;
31770;SDS011;18343;50.152;8.182;2022-08-01T03:23:10;1.80;;;1.52;;
31770;SDS011;18343;50.152;8.182;2022-08-01T03:25:40;2.17;;;1.40;;
31770;SDS011;18343;50.152;8.182;2022-08-01T03:28:11;2.22;;;1.65;;
31770;SDS011;18343;50.152;8.182;2022-08-01T03:30:42;2.37;;;1.50;;
31770;SDS011;18343;50.152;8.182;2022-08-01T03:33:12;1.73;;;1.35;;
31770;SDS011;18343;50.152;8.182;2022-08-01T03:35:42;2.67;;;1.42;;
31770;SDS011;18343;50.152;8.182;2022-08-01T03:38:18;3.45;;;1.88;;
31770;SDS011;18343;50.152;8.182;2022-08-01T03:40:51;2.05;;;1.65;;
31770;SDS011;18343;50.152;8.182;2022-08-01T03:43:25;2.77;;;1.50;;
31770;SDS011;18343;50.152;8.182;2022-08-01T03:46:01;2.47;;;1.45;;
31770;SDS011;18343;50.152;8.182;2022-08-01T03:48:36;1.50;;;1.40;;
31770;SDS011;18343;50.152;8.182;2022-08-01T03:51:09;2.97;;;1.40;;
31770;SDS011;18343;50.152;8.182;2022-08-01T03:53:39;6.25;;;1.50;;
31770;SDS011;18343;50.152;8.182;2022-08-01T03:56:09;2.60;;;1.85;;
31770;SDS011;18343;50.152;8.182;2022-08-01T03:58:39;1.65;;;1.48;;
31770;SDS011;18343;50.152;8.182;2022-08-01T04:01:08;5.32;;;1.88;;
31770;SDS011;18343;50.152;8.182;2022-08-01T04:03:37;1.98;;;1.58;;
31770;SDS011;18343;50.152;8.182;2022-08-01T04:06:06;2.55;;;1.48;;
31770;SDS011;18343;50.152;8.182;2022-08-01T04:08:35;3.63;;;1.60;;
31770;SDS011;18343;50.152;8.182;2022-08-01T04:11:04;3.60;;;1.70;;
31770;SDS011;18343;50.152;8.182;2022-08-01T04:13:32;3.03;;;1.63;;
31770;SDS011;18343;50.152;8.182;2022-08-01T04:16:02;2.58;;;1.70;;
31770;SDS011;18343;50.152;8.182;2022-08-01T04:18:30;2.22;;;1.63;;
31770;SDS011;18343;50.152;8.182;2022-08-01T04:20:59;2.45;;;1.38;;
31770;SDS011;18343;50.152;8.182;2022-08-01T04:23:27;2.05;;;1.45;;
31770;SDS011;18343;50.152;8.182;2022-08-01T04:25:58;1.70;;;1.60;;
31770;SDS011;18343;50.152;8.182;2022-08-01T04:28:30;3.90;;;1.98;;
31770;SDS011;18343;50.152;8.182;2022-08-01T04:31:01;2.50;;;1.60;;
31770;SDS011;18343;50.152;8.182;2022-08-01T04:33:34;5.38;;;1.83;;
31770;SDS011;18343;50.152;8.182;2022-08-01T04:36:05;2.40;;;1.80;;
31770;SDS011;18343;50.152;8.182;2022-08-01T04:38:35;3.58;;;1.50;;
31770;SDS011;18343;50.152;8.182;2022-08-01T04:41:03;4.07;;;1.83;;
31770;SDS011;18343;50.152;8.182;2022-08-01T04:43:32;2.28;;;1.50;;
31770;SDS011;18343;50.152;8.182;2022-08-01T04:46:00;5.88;;;1.75;;
31770;SDS011;18343;50.152;8.182;2022-08-01T04:48:29;3.22;;;1.50;;
31770;SDS011;18343;50.152;8.182;2022-08-01T04:51:03;3.67;;;1.83;;
31770;SDS011;18343;50.152;8.182;2022-08-01T04:53:47;3.70;;;1.55;;
31770;SDS011;18343;50.152;8.182;2022-08-01T04:56:16;2.45;;;1.60;;
31770;SDS011;18343;50.152;8.182;2022-08-01T04:58:44;2.90;;;1.75;;
31770;SDS011;18343;50.152;8.182;2022-08-01T05:01:12;3.05;;;1.67;;
31770;SDS011;18343;50.152;8.182;2022-08-01T05:03:40;3.00;;;1.60;;
31770;SDS011;18343;50.152;8.182;2022-08-01T05:06:17;3.30;;;1.73;;
31770;SDS011;18343;50.152;8.182;2022-08-01T05:08:44;4.13;;;1.75;;
31770;SDS011;18343;50.152;8.182;2022-08-01T05:11:14;3.70;;;1.50;;
31770;SDS011;18343;50.152;8.182;2022-08-01T05:13:42;2.63;;;1.63;;
31770;SDS011;18343;50.152;8.182;2022-08-01T05:16:09;2.03;;;1.20;;
31770;SDS011;18343;50.152;8.182;2022-08-01T05:18:37;2.58;;;1.80;;
31770;SDS011;18343;50.152;8.182;2022-08-01T05:21:04;2.72;;;1.75;;
31770;SDS011;18343;50.152;8.182;2022-08-01T05:23:36;2.72;;;1.60;;
31770;SDS011;18343;50.152;8.182;2022-08-01T05:26:05;2.58;;;1.77;;
31770;SDS011;18343;50.152;8.182;2022-08-01T05:28:38;2.88;;;1.90;;
31770;SDS011;18343;50.152;8.182;2022-08-01T05:31:06;4.13;;;1.63;;
31770;SDS011;18343;50.152;8.182;2022-08-01T05:33:33;2.15;;;1.50;;
31770;SDS011;18343;50.152;8.182;2022-08-01T05:36:02;3.90;;;2.10;;
31770;SDS011;18343;50.152;8.182;2022-08-01T05:38:30;2.85;;;1.65;;
31770;SDS011;18343;50.152;8.182;2022-08-01T05:40:59;2.53;;;1.60;;
31770;SDS011;18343;50.152;8.182;2022-08-01T05:43:27;4.10;;;1.67;;
31770;SDS011;18343;50.152;8.182;2022-08-01T05:45:54;1.67;;;1.58;;
31770;SDS011;18343;50.152;8.182;2022-08-01T05:48:23;2.58;;;1.73;;
31770;SDS011;18343;50.152;8.182;2022-08-01T05:50:51;2.38;;;1.55;;
31770;SDS011;18343;50.152;8.182;2022-08-01T05:53:19;1.65;;;1.50;;
31770;SDS011;18343;50.152;8.182;2022-08-01T05:55:47;2.35;;;1.50;;
31770;SDS011;18343;50.152;8.182;2022-08-01T05:58:16;2.67;;;1.67;;
31770;SDS011;18343;50.152;8.182;2022-08-01T06:00:44;1.73;;;1.60;;
31770;SDS011;18343;50.152;8.182;2022-08-01T06:03:12;4.90;;;2.03;;
31770;SDS011;18343;50.152;8.182;2022-08-01T06:05:40;4.03;;;2.00;;
31770;SDS011;18343;50.152;8.182;2022-08-01T06:08:08;3.17;;;1.67;;
31770;SDS011;18343;50.152;8.182;2022-08-01T06:10:35;4.60;;;1.92;;
31770;SDS011;18343;50.152;8.182;2022-08-01T06:13:03;5.68;;;1.77;;
31770;SDS011;18343;50.152;8.182;2022-08-01T06:15:32;2.45;;;2.00;;
31770;SDS011;18343;50.152;8.182;2022-08-01T06:18:00;1.80;;;1.48;;
31770;SDS011;18343;50.152;8.182;2022-08-01T06:20:30;1.98;;;1.70;;
31770;SDS011;18343;50.152;8.182;2022-08-01T06:22:57;2.65;;;1.80;;
31770;SDS011;18343;50.152;8.182;2022-08-01T06:25:33;6.38;;;1.95;;
31770;SDS011;18343;50.152;8.182;2022-08-01T06:28:00;2.65;;;2.00;;
31770;SDS011;18343;50.152;8.182;2022-08-01T06:30:29;3.25;;;2.00;;
31770;SDS011;18343;50.152;8.182;2022-08-01T06:32:57;2.40;;;1.85;;
31770;SDS011;18343;50.152;8.182;2022-08-01T06:35:25;2.90;;;1.90;;
31770;SDS011;18343;50.152;8.182;2022-08-01T06:37:54;3.15;;;2.13;;
31770;SDS011;18343;50.152;8.182;2022-08-01T06:40:22;3.92;;;2.15;;
31770;SDS011;18343;50.152;8.182;2022-08-01T06:42:50;3.10;;;2.40;;
31770;SDS011;18343;50.152;8.182;2022-08-01T06:45:20;3.42;;;2.15;;
31770;SDS011;18343;50.152;8.182;2022-08-01T06:47:51;5.95;;;2.70;;
31770;SDS011;18343;50.152;8.182;2022-08-01T06:50:20;4.00;;;2.60;;
31770;SDS011;18343;50.152;8.182;2022-08-01T06:52:48;3.65;;;2.42;;
31770;SDS011;18343;50.152;8.182;2022-08-01T06:55:15;3.35;;;2.55;;
31770;SDS011;18343;50.152;8.182;2022-08-01T06:57:45;4.10;;;2.28;;
31770;SDS011;18343;50.152;8.182;2022-08-01T07:00:16;4.93;;;2.80;;
31770;SDS011;18343;50.152;8.182;2022-08-01T07:05:16;5.47;;;2.75;;
31770;SDS011;18343;50.152;8.182;2022-08-01T07:07:45;3.72;;;2.63;;
31770;SDS011;18343;50.152;8.182;2022-08-01T07:10:13;4.93;;;3.15;;
31770;SDS011;18343;50.152;8.182;2022-08-01T07:12:41;5.22;;;3.58;;
31770;SDS011;18343;50.152;8.182;2022-08-01T07:15:14;4.00;;;3.40;;
31770;SDS011;18343;50.152;8.182;2022-08-01T07:17:47;3.65;;;2.70;;
31770;SDS011;18343;50.152;8.182;2022-08-01T07:20:15;3.58;;;2.85;;
31770;SDS011;18343;50.152;8.182;2022-08-01T07:22:48;6.88;;;3.28;;
31770;SDS011;18343;50.152;8.182;2022-08-01T07:25:15;4.05;;;3.45;;
31770;SDS011;18343;50.152;8.182;2022-08-01T07:27:43;5.80;;;3.20;;
31770;SDS011;18343;50.152;8.182;2022-08-01T07:30:11;4.95;;;3.05;;
31770;SDS011;18343;50.152;8.182;2022-08-01T07:32:39;4.78;;;3.05;;
31770;SDS011;18343;50.152;8.182;2022-08-01T07:35:10;4.75;;;3.83;;
31770;SDS011;18343;50.152;8.182;2022-08-01T07:37:38;7.10;;;4.47;;
31770;SDS011;18343;50.152;8.182;2022-08-01T07:40:12;6.22;;;4.10;;
31770;SDS011;18343;50.152;8.182;2022-08-01T07:42:40;5.10;;;4.28;;
31770;SDS011;18343;50.152;8.182;2022-08-01T07:45:10;8.93;;;4.53;;
31770;SDS011;18343;50.152;8.182;2022-08-01T07:47:38;6.45;;;4.20;;
31770;SDS011;18343;50.152;8.182;2022-08-01T07:50:06;6.68;;;4.50;;
31770;SDS011;18343;50.152;8.182;2022-08-01T07:52:35;5.38;;;4.20;;
31770;SDS011;18343;50.152;8.182;2022-08-01T07:55:03;5.47;;;4.97;;
31770;SDS011;18343;50.152;8.182;2022-08-01T07:57:52;6.22;;;4.53;;
31770;SDS011;18343;50.152;8.182;2022-08-01T08:00:20;9.10;;;5.63;;
31770;SDS011;18343;50.152;8.182;2022-08-01T08:02:52;7.47;;;5.60;;
31770;SDS011;18343;50.152;8.182;2022-08-01T08:05:20;8.70;;;6.60;;
31770;SDS011;18343;50.152;8.182;2022-08-01T08:07:50;8.23;;;5.95;;
31770;SDS011;18343;50.152;8.182;2022-08-01T08:10:18;7.63;;;6.00;;
31770;SDS011;18343;50.152;8.182;2022-08-01T08:12:46;17.38;;;5.97;;
31770;SDS011;18343;50.152;8.182;2022-08-01T08:15:15;5.35;;;4.85;;
31770;SDS011;18343;50.152;8.182;2022-08-01T08:17:46;5.93;;;4.78;;
31770;SDS011;18343;50.152;8.182;2022-08-01T08:20:16;7.53;;;5.30;;
31770;SDS011;18343;50.152;8.182;2022-08-01T08:22:49;6.65;;;5.88;;
31770;SDS011;18343;50.152;8.182;2022-08-01T08:25:17;7.65;;;4.90;;
31770;SDS011;18343;50.152;8.182;2022-08-01T08:27:47;7.32;;;5.32;;
31770;SDS011;18343;50.152;8.182;2022-08-01T08:30:16;6.07;;;5.43;;
31770;SDS011;18343;50.152;8.182;2022-08-01T08:32:45;7.60;;;5.65;;
31770;SDS011;18343;50.152;8.182;2022-08-01T08:35:13;10.13;;;5.88;;
31770;SDS011;18343;50.152;8.182;2022-08-01T08:37:41;5.93;;;5.30;;
31770;SDS011;18343;50.152;8.182;2022-08-01T08:40:09;6.38;;;5.43;;
31770;SDS011;18343;50.152;8.182;2022-08-01T08:42:38;6.82;;;5.07;;
31770;SDS011;18343;50.152;8.182;2022-08-01T08:45:08;7.38;;;5.30;;
31770;SDS011;18343;50.152;8.182;2022-08-01T08:47:43;6.10;;;5.18;;
31770;SDS011;18343;50.152;8.182;2022-08-01T08:50:13;5.40;;;4.78;;
31770;SDS011;18343;50.152;8.182;2022-08-01T08:52:41;8.55;;;5.15;;
31770;SDS011;18343;50.152;8.182;2022-08-01T08:55:13;6.60;;;4.60;;
31770;SDS011;18343;50.152;8.182;2022-08-01T08:57:44;6.38;;;4.90;;
31770;SDS011;18343;50.152;8.182;2022-08-01T09:00:18;5.13;;;4.60;;
31770;SDS011;18343;50.152;8.182;2022-08-01T09:02:47;8.00;;;4.13;;
31770;SDS011;18343;50.152;8.182;2022-08-01T09:05:17;5.00;;;4.18;;
31770;SDS011;18343;50.152;8.182;2022-08-01T09:07:50;6.13;;;3.72;;
31770;SDS011;18343;50.152;8.182;2022-08-01T09:10:21;4.07;;;3.60;;
31770;SDS011;18343;50.152;8.182;2022-08-01T09:13:05;5.35;;;3.78;;
31770;SDS011;18343;50.152;8.182;2022-08-01T09:15:40;5.65;;;3.75;;
31770;SDS011;18343;50.152;8.182;2022-08-01T09:21:09;7.75;;;3.97;;
31770;SDS011;18343;50.152;8.182;2022-08-01T09:23:41;5.60;;;4.05;;
31770;SDS011;18343;50.152;8.182;2022-08-01T09:26:11;6.60;;;4.05;;
31770;SDS011;18343;50.152;8.182;2022-08-01T09:28:40;4.70;;;3.45;;
31770;SDS011;18343;50.152;8.182;2022-08-01T09:31:09;7.10;;;4.07;;
31770;SDS011;18343;50.152;8.182;2022-08-01T09:33:48;4.63;;;3.90;;
31770;SDS011;18343;50.152;8.182;2022-08-01T09:36:19;6.22;;;4.00;;
31770;SDS011;18343;50.152;8.182;2022-08-01T09:38:47;5.90;;;4.28;;
31770;SDS011;18343;50.152;8.182;2022-08-01T09:41:16;5.32;;;4.03;;
31770;SDS011;18343;50.152;8.182;2022-08-01T09:43:47;4.97;;;3.88;;
31770;SDS011;18343;50.152;8.182;2022-08-01T09:46:17;5.75;;;3.88;;
31770;SDS011;18343;50.152;8.182;2022-08-01T09:48:57;4.75;;;4.00;;
31770;SDS011;18343;50.152;8.182;2022-08-01T09:51:32;6.03;;;3.72;;
31770;SDS011;18343;50.152;8.182;2022-08-01T09:54:01;3.55;;;3.03;;
31770;SDS011;18343;50.152;8.182;2022-08-01T09:56:35;5.25;;;3.28;;
31770;SDS011;18343;50.152;8.182;2022-08-01T09:59:05;3.38;;;3.08;;
31770;SDS011;18343;50.152;8.182;2022-08-01T10:01:42;6.57;;;2.65;;
31770;SDS011;18343;50.152;8.182;2022-08-01T10:04:13;4.47;;;2.90;;
31770;SDS011;18343;50.152;8.182;2022-08-01T10:06:45;3.97;;;3.08;;
31770;SDS011;18343;50.152;8.182;2022-08-01T10:09:26;4.75;;;3.30;;
31770;SDS011;18343;50.152;8.182;2022-08-01T10:11:55;2.63;;;2.42;;
31770;SDS011;18343;50.152;8.182;2022-08-01T10:14:25;5.65;;;2.97;;
31770;SDS011;18343;50.152;8.182;2022-08-01T10:16:54;5.10;;;2.80;;
31770;SDS011;18343;50.152;8.182;2022-08-01T10:19:24;2.78;;;2.55;;
31770;SDS011;18343;50.152;8.182;2022-08-01T10:21:55;6.15;;;2.60;;
31770;SDS011;18343;50.152;8.182;2022-08-01T10:24:24;4.10;;;3.00;;
31770;SDS011;18343;50.152;8.182;2022-08-01T10:26:58;4.40;;;2.92;;
31770;SDS011;18343;50.152;8.182;2022-08-01T10:29:30;3.45;;;2.70;;
31770;SDS011;18343;50.152;8.182;2022-08-01T10:32:04;2.92;;;2.72;;
31770;SDS011;18343;50.152;8.182;2022-08-01T10:34:34;4.70;;;2.75;;
31770;SDS011;18343;50.152;8.182;2022-08-01T10:37:04;3.22;;;2.80;;
31770;SDS011;18343;50.152;8.182;2022-08-01T10:39:33;6.50;;;2.92;;
31770;SDS011;18343;50.152;8.182;2022-08-01T10:42:01;4.07;;;3.05;;
31770;SDS011;18343;50.152;8.182;2022-08-01T10:44:30;3.05;;;2.70;;
31770;SDS011;18343;50.152;8.182;2022-08-01T10:47:02;9.15;;;2.97;;
31770;SDS011;18343;50.152;8.182;2022-08-01T10:49:36;5.90;;;3.05;;
31770;SDS011;18343;50.152;8.182;2022-08-01T10:52:16;3.60;;;2.80;;
31770;SDS011;18343;50.152;8.182;2022-08-01T10:54:43;3.65;;;3.08;;
31770;SDS011;18343;50.152;8.182;2022-08-01T10:57:11;8.55;;;2.78;;
31770;SDS011;18343;50.152;8.182;2022-08-01T10:59:47;2.90;;;2.67;;
31770;SDS011;18343;50.152;8.182;2022-08-01T11:02:25;5.68;;;2.97;;
31770;SDS011;18343;50.152;8.182;2022-08-01T11:04:55;2.90;;;2.60;;
31770;SDS011;18343;50.152;8.182;2022-08-01T11:07:37;5.93;;;3.20;;
31770;SDS011;18343;50.152;8.182;2022-08-01T11:10:15;3.65;;;2.60;;
31770;SDS011;18343;50.152;8.182;2022-08-01T11:12:49;2.95;;;2.53;;
31770;SDS011;18343;50.152;8.182;2022-08-01T11:15:20;3.90;;;2.75;;
31770;SDS011;18343;50.152;8.182;2022-08-01T11:17:51;2.58;;;2.38;;
31770;SDS011;18343;50.152;8.182;2022-08-01T11:20:20;6.20;;;3.10;;
31770;SDS011;18343;50.152;8.182;2022-08-01T11:31:41;3.83;;;2.60;;
31770;SDS011;18343;50.152;8.182;2022-08-01T11:34:08;5.32;;;2.80;;
31770;SDS011;18343;50.152;8.182;2022-08-01T11:36:35;4.43;;;2.85;;
31770;SDS011;18343;50.152;8.182;2022-08-01T11:39:17;2.95;;;2.28;;
31770;SDS011;18343;50.152;8.182;2022-08-01T11:41:46;4.90;;;2.50;;
31770;SDS011;18343;50.152;8.182;2022-08-01T11:44:16;4.70;;;2.20;;
31770;SDS011;18343;50.152;8.182;2022-08-01T11:46:52;3.15;;;2.58;;
31770;SDS011;18343;50.152;8.182;2022-08-01T11:52:24;3.05;;;2.47;;
31770;SDS011;18343;50.152;8.182;2022-08-01T11:54:55;2.63;;;2.40;;
31770;SDS011;18343;50.152;8.182;2022-08-01T11:57:31;3.67;;;2.45;;
31770;SDS011;18343;50.152;8.182;2022-08-01T12:00:00;4.55;;;2.83;;
31770;SDS011;18343;50.152;8.182;2022-08-01T12:02:32;4.30;;;2.65;;
31770;SDS011;18343;50.152;8.182;2022-08-01T12:05:00;4.97;;;2.90;;
31770;SDS011;18343;50.152;8.182;2022-08-01T12:07:36;2.80;;;2.33;;
31770;SDS011;18343;50.152;8.182;2022-08-01T12:10:08;4.13;;;2.92;;
31770;SDS011;18343;50.152;8.182;2022-08-01T12:12:42;2.65;;;2.20;;
31770;SDS011;18343;50.152;8.182;2022-08-01T12:15:11;5.55;;;2.50;;
31770;SDS011;18343;50.152;8.182;2022-08-01T12:17:40;2.85;;;2.42;;
31770;SDS011;18343;50.152;8.182;2022-08-01T12:20:10;4.10;;;2.60;;
31770;SDS011;18343;50.152;8.182;2022-08-01T12:22:39;3.95;;;2.92;;
31770;SDS011;18343;50.152;8.182;2022-08-01T12:25:09;6.35;;;3.05;;
31770;SDS011;18343;50.152;8.182;2022-08-01T12:27:38;3.40;;;2.50;;
31770;SDS011;18343;50.152;8.182;2022-08-01T12:30:08;7.45;;;2.78;;
31770;SDS011;18343;50.152;8.182;2022-08-01T12:32:37;5.70;;;2.60;;
31770;SDS011;18343;50.152;8.182;2022-08-01T12:35:08;4.22;;;2.90;;
31770;SDS011;18343;50.152;8.182;2022-08-01T12:37:37;2.88;;;2.58;;
31770;SDS011;18343;50.152;8.182;2022-08-01T12:40:14;5.80;;;2.80;;
31770;SDS011;18343;50.152;8.182;2022-08-01T12:42:44;7.82;;;2.80;;
31770;SDS011;18343;50.152;8.182;2022-08-01T12:45:14;5.50;;;3.08;;
31770;SDS011;18343;50.152;8.182;2022-08-01T12:47:46;4.07;;;2.53;;
31770;SDS011;18343;50.152;8.182;2022-08-01T12:50:15;5.85;;;3.50;;
31770;SDS011;18343;50.152;8.182;2022-08-01T12:52:45;7.80;;;3.28;;
31770;SDS011;18343;50.152;8.182;2022-08-01T12:55:15;5.78;;;3.42;;
31770;SDS011;18343;50.152;8.182;2022-08-01T12:57:44;4.68;;;3.13;;
31770;SDS011;18343;50.152;8.182;2022-08-01T13:00:16;8.13;;;3.40;;
31770;SDS011;18343;50.152;8.182;2022-08-01T13:02:48;8.07;;;3.25;;
31770;SDS011;18343;50.152;8.182;2022-08-01T13:05:26;6.38;;;3.20;;
31770;SDS011;18343;50.152;8.182;2022-08-01T13:07:53;4.40;;;3.17;;
31770;SDS011;18343;50.152;8.182;2022-08-01T13:10:26;7.72;;;3.05;;
31770;SDS011;18343;50.152;8.182;2022-08-01T13:12:56;7.28;;;3.65;;
31770;SDS011;18343;50.152;8.182;2022-08-01T13:15:26;5.07;;;3.17;;
31770;SDS011;18343;50.152;8.182;2022-08-01T13:17:57;6.95;;;3.65;;
31770;SDS011;18343;50.152;8.182;2022-08-01T13:20:28;7.93;;;3.78;;
31770;SDS011;18343;50.152;8.182;2022-08-01T13:23:11;9.73;;;3.70;;
31770;SDS011;18343;50.152;8.182;2022-08-01T13:25:49;5.32;;;3.33;;
31770;SDS011;18343;50.152;8.182;2022-08-01T13:28:20;7.88;;;3.38;;
31770;SDS011;18343;50.152;8.182;2022-08-01T13:30:52;7.55;;;4.07;;
31770;SDS011;18343;50.152;8.182;2022-08-01T13:33:21;3.70;;;3.40;;
31770;SDS011;18343;50.152;8.182;2022-08-01T13:35:50;5.78;;;4.30;;
31770;SDS011;18343;50.152;8.182;2022-08-01T13:38:18;4.18;;;3.67;;
31770;SDS011;18343;50.152;8.182;2022-08-01T13:41:07;6.38;;;3.67;;
31770;SDS011;18343;50.152;8.182;2022-08-01T13:43:34;4.82;;;3.40;;
31770;SDS011;18343;50.152;8.182;2022-08-01T13:46:02;6.60;;;3.35;;
31770;SDS011;18343;50.152;8.182;2022-08-01T13:48:29;8.93;;;4.15;;
31770;SDS011;18343;50.152;8.182;2022-08-01T13:50:58;4.10;;;3.60;;
31770;SDS011;18343;50.152;8.182;2022-08-01T13:53:25;9.25;;;3.63;;
31770;SDS011;18343;50.152;8.182;2022-08-01T13:55:53;9.73;;;3.80;;
31770;SDS011;18343;50.152;8.182;2022-08-01T13:58:22;5.20;;;4.00;;
31770;SDS011;18343;50.152;8.182;2022-08-01T14:00:49;5.65;;;3.95;;
31770;SDS011;18343;50.152;8.182;2022-08-01T14:03:17;7.50;;;3.90;;
31770;SDS011;18343;50.152;8.182;2022-08-01T14:05:45;11.88;;;3.42;;
31770;SDS011;18343;50.152;8.182;2022-08-01T14:08:12;6.53;;;4.00;;
31770;SDS011;18343;50.152;8.182;2022-08-01T14:10:39;5.68;;;3.88;;
31770;SDS011;18343;50.152;8.182;2022-08-01T14:13:06;7.90;;;4.22;;
31770;SDS011;18343;50.152;8.182;2022-08-01T14:15:35;8.75;;;4.00;;
31770;SDS011;18343;50.152;8.182;2022-08-01T14:18:02;9.00;;;4.55;;
31770;SDS011;18343;50.152;8.182;2022-08-01T14:20:30;8.05;;;4.10;;
31770;SDS011;18343;50.152;8.182;2022-08-01T14:22:57;5.22;;;4.00;;
31770;SDS011;18343;50.152;8.182;2022-08-01T14:25:25;9.30;;;4.72;;
31770;SDS011;18343;50.152;8.182;2022-08-01T14:27:52;6.95;;;4.45;;
31770;SDS011;18343;50.152;8.182;2022-08-01T14:30:19;5.32;;;4.35;;
31770;SDS011;18343;50.152;8.182;2022-08-01T14:32:48;4.32;;;3.92;;
31770;SDS011;18343;50.152;8.182;2022-08-01T14:35:15;8.85;;;4.45;;
31770;SDS011;18343;50.152;8.182;2022-08-01T14:37:43;8.45;;;4.53;;
31770;SDS011;18343;50.152;8.182;2022-08-01T14:40:10;7.22;;;4.78;;
31770;SDS011;18343;50.152;8.182;2022-08-01T14:42:37;6.75;;;4.70;;
31770;SDS011;18343;50.152;8.182;2022-08-01T14:45:05;5.78;;;4.80;;
31770;SDS011;18343;50.152;8.182;2022-08-01T14:47:35;5.18;;;4.68;;
31770;SDS011;18343;50.152;8.182;2022-08-01T14:50:05;5.38;;;4.78;;
31770;SDS011;18343;50.152;8.182;2022-08-01T14:52:34;9.18;;;4.65;;
31770;SDS011;18343;50.152;8.182;2022-08-01T14:55:03;6.35;;;4.38;;
31770;SDS011;18343;50.152;8.182;2022-08-01T14:57:33;9.25;;;5.07;;
31770;SDS011;18343;50.152;8.182;2022-08-01T15:00:02;4.93;;;4.53;;
31770;SDS011;18343;50.152;8.182;2022-08-01T15:02:32;5.30;;;4.38;;
31770;SDS011;18343;50.152;8.182;2022-08-01T15:04:59;8.23;;;4.53;;
31770;SDS011;18343;50.152;8.182;2022-08-01T15:07:27;6.53;;;4.65;;
31770;SDS011;18343;50.152;8.182;2022-08-01T15:09:55;5.38;;;4.28;;
31770;SDS011;18343;50.152;8.182;2022-08-01T15:12:22;6.95;;;3.67;;
31770;SDS011;18343;50.152;8.182;2022-08-01T15:14:49;5.43;;;3.92;;
31770;SDS011;18343;50.152;8.182;2022-08-01T15:17:18;6.78;;;3.80;;
31770;SDS011;18343;50.152;8.182;2022-08-01T15:19:48;6.72;;;3.60;;
31770;SDS011;18343;50.152;8.182;2022-08-01T15:22:17;9.90;;;3.90;;
31770;SDS011;18343;50.152;8.182;2022-08-01T15:24:47;3.50;;;3.15;;